createdAt,value
2023-09-24T00:00:17.000Z,101358.44
2023-09-24T00:02:45.991Z,101365.19
2023-09-24T00:05:14.362Z,101366.22
2023-09-24T00:07:42.654Z,101367.22
2023-09-24T00:10:11.448Z,101368.25
2023-09-24T00:12:39.769Z,101375.66
2023-09-24T00:15:10.052Z,101361.72
2023-09-24T00:17:39.302Z,101368.88
2023-09-24T00:20:08.412Z,101369.91
2023-09-24T00:22:36.946Z,101372.00
2023-09-24T00:25:05.628Z,101367.88
2023-09-24T00:27:34.057Z,101369.94
2023-09-24T00:30:02.286Z,101380.78
2023-09-24T00:32:31.045Z,101381.00
2023-09-24T00:35:00.705Z,101366.88
2023-09-24T00:37:28.783Z,101371.59
2023-09-24T00:39:56.598Z,101372.81
2023-09-24T00:42:24.414Z,101366.91
2023-09-24T00:44:53.213Z,101367.09
2023-09-24T00:47:21.373Z,101371.81
2023-09-24T00:49:49.534Z,101364.22
2023-09-24T00:52:19.746Z,101363.41
2023-09-24T00:54:47.734Z,101377.97
2023-09-24T00:57:15.856Z,101379.00
2023-09-24T00:59:47.582Z,101377.34
2023-09-24T01:02:18.095Z,101377.75
2023-09-24T01:04:46.931Z,101378.78
2023-09-24T01:07:15.080Z,101372.00
2023-09-24T01:09:45.799Z,101381.03
2023-09-24T01:12:22.868Z,101376.09
2023-09-24T01:14:50.840Z,101383.28
2023-09-24T01:17:19.352Z,101383.69
2023-09-24T01:19:47.607Z,101383.06
2023-09-24T01:22:17.284Z,101381.44
2023-09-24T01:24:44.887Z,101386.38
2023-09-24T01:27:13.064Z,101383.06
2023-09-24T01:29:41.740Z,101388.81
2023-09-24T01:32:09.786Z,101393.50
2023-09-24T01:34:38.063Z,101387.59
2023-09-24T01:37:10.014Z,101387.59
2023-09-24T01:39:40.904Z,101382.44
2023-09-24T01:42:14.742Z,101388.00
2023-09-24T01:44:44.034Z,101390.03
2023-09-24T01:47:12.919Z,101381.44
2023-09-24T01:49:40.744Z,101385.13
2023-09-24T01:52:08.841Z,101385.34
2023-09-24T01:54:36.644Z,101385.50
2023-09-24T01:57:05.822Z,101383.88
2023-09-24T01:59:34.024Z,101380.63
2023-09-24T02:02:02.169Z,101390.44
2023-09-24T02:04:30.002Z,101386.97
2023-09-24T02:06:58.080Z,101379.38
2023-09-24T02:09:26.381Z,101383.06
2023-09-24T02:11:58.792Z,101380.63
2023-09-24T02:14:48.980Z,101384.09
2023-09-24T02:17:17.422Z,101386.13
2023-09-24T02:19:45.775Z,101383.69
2023-09-24T02:22:14.332Z,101383.69
2023-09-24T02:24:42.137Z,101378.56
2023-09-24T02:27:10.875Z,101384.91
2023-09-24T02:29:39.121Z,101386.75
2023-09-24T02:32:09.337Z,101380.59
2023-09-24T02:34:37.541Z,101377.56
2023-09-24T02:37:05.900Z,101381.03
2023-09-24T02:39:35.615Z,101386.53
2023-09-24T02:42:03.527Z,101381.41
2023-09-24T02:44:32.386Z,101393.09
2023-09-24T02:47:00.222Z,101387.97
2023-09-24T02:49:29.735Z,101393.31
2023-09-24T02:51:57.562Z,101397.16
2023-09-24T02:54:25.873Z,101386.75
2023-09-24T02:56:54.537Z,101391.25
2023-09-24T02:59:22.321Z,101392.25
2023-09-24T03:01:55.168Z,101387.94
2023-09-24T03:04:24.858Z,101379.38
2023-09-24T03:06:54.541Z,101385.50
2023-09-24T03:09:22.139Z,101385.94
2023-09-24T03:11:50.387Z,101393.28
2023-09-24T03:14:18.252Z,101392.03
2023-09-24T03:16:47.394Z,101403.09
2023-09-24T03:19:15.199Z,101397.34
2023-09-24T03:21:43.031Z,101416.16
2023-09-24T03:24:16.282Z,101417.19
2023-09-24T03:26:44.500Z,101416.78
2023-09-24T03:29:13.996Z,101416.97
2023-09-24T03:31:43.433Z,101417.97
2023-09-24T03:34:11.983Z,101419.00
2023-09-24T03:36:40.750Z,101416.56
2023-09-24T03:39:10.484Z,101407.13
2023-09-24T03:41:41.018Z,101410.81
2023-09-24T03:44:09.019Z,101407.72
2023-09-24T03:46:37.461Z,101414.88
2023-09-24T03:49:05.320Z,101412.63
2023-09-24T03:51:33.511Z,101413.63
2023-09-24T03:54:01.306Z,101413.03
2023-09-24T03:56:29.659Z,101411.38
2023-09-24T03:58:58.978Z,101406.28
2023-09-24T04:01:27.347Z,101408.09
2023-09-24T04:03:55.388Z,101411.16
2023-09-24T04:06:24.827Z,101399.91
2023-09-24T04:08:52.805Z,101417.69
2023-09-24T04:11:21.496Z,101420.56
2023-09-24T04:13:49.382Z,101430.56
2023-09-24T04:16:19.113Z,101416.47
2023-09-24T04:18:47.920Z,101419.31
2023-09-24T04:21:18.210Z,101413.16
2023-09-24T04:23:47.174Z,101414.38
2023-09-24T04:26:27.120Z,101412.69
2023-09-24T04:28:57.059Z,101417.66
2023-09-24T04:31:26.628Z,101422.16
2023-09-24T04:33:55.979Z,101416.84
2023-09-24T04:36:24.232Z,101407.47
2023-09-24T04:38:54.362Z,101411.97
2023-09-24T04:41:23.488Z,101409.50
2023-09-24T04:43:51.315Z,101421.97
2023-09-24T04:46:19.644Z,101421.97
2023-09-24T04:48:49.564Z,101421.97
2023-09-24T04:51:17.939Z,101420.13
2023-09-24T04:53:45.924Z,101421.78
2023-09-24T04:56:14.338Z,101422.59
2023-09-24T04:58:42.146Z,101423.22
2023-09-24T05:01:10.735Z,101423.22
2023-09-24T05:03:43.570Z,101428.31
2023-09-24T05:06:13.605Z,101424.47
2023-09-24T05:08:41.447Z,101435.09
2023-09-24T05:11:12.510Z,101432.00
2023-09-24T05:13:41.369Z,101434.69
2023-09-24T05:16:10.416Z,101439.81
2023-09-24T05:18:39.008Z,101446.34
2023-09-24T05:21:17.279Z,101451.88
2023-09-24T05:23:45.315Z,101450.25
2023-09-24T05:26:14.430Z,101451.25
2023-09-24T05:28:43.606Z,101446.53
2023-09-24T05:31:11.485Z,101456.59
2023-09-24T05:33:39.523Z,101456.59
2023-09-24T05:36:09.100Z,101456.59
2023-09-24T05:38:38.655Z,101465.38
2023-09-24T05:41:07.061Z,101470.69
2023-09-24T05:43:35.396Z,101462.50
2023-09-24T05:46:03.776Z,101468.03
2023-09-24T05:48:31.693Z,101462.72
2023-09-24T05:51:04.999Z,101475.81
2023-09-24T05:53:33.715Z,101482.16
2023-09-24T05:56:05.753Z,101478.28
2023-09-24T05:58:33.585Z,101473.13
2023-09-24T06:01:02.777Z,101482.75
2023-09-24T06:03:31.053Z,101489.72
2023-09-24T06:05:59.119Z,101480.72
2023-09-24T06:08:26.987Z,101484.22
2023-09-24T06:10:54.975Z,101487.47
2023-09-24T06:13:24.146Z,101478.50
2023-09-24T06:16:01.131Z,101485.25
2023-09-24T06:18:29.853Z,101479.94
2023-09-24T06:20:58.320Z,101479.72
2023-09-24T06:23:26.682Z,101489.38
2023-09-24T06:25:57.954Z,101482.59
2023-09-24T06:28:28.280Z,101478.97
2023-09-24T06:31:02.460Z,101480.38
2023-09-24T06:33:30.989Z,101477.34
2023-09-24T06:35:58.982Z,101481.25
2023-09-24T06:38:26.892Z,101484.94
2023-09-24T06:40:59.068Z,101495.38
2023-09-24T06:43:28.613Z,101488.88
2023-09-24T06:45:57.152Z,101491.75
2023-09-24T06:48:25.566Z,101492.38
2023-09-24T06:50:55.079Z,101491.19
2023-09-24T06:53:22.839Z,101494.88
2023-09-24T06:55:50.935Z,101488.94
2023-09-24T06:58:18.811Z,101494.72
2023-09-24T07:00:48.002Z,101495.13
2023-09-24T07:03:16.112Z,101489.59
2023-09-24T07:05:44.042Z,101498.63
2023-09-24T07:08:12.356Z,101496.53
2023-09-24T07:10:41.282Z,101502.09
2023-09-24T07:13:09.579Z,101498.16
2023-09-24T07:15:37.464Z,101504.50
2023-09-24T07:18:07.187Z,101508.34
2023-09-24T07:20:35.138Z,101510.59
2023-09-24T07:23:03.012Z,101507.28
2023-09-24T07:25:32.215Z,101511.13
2023-09-24T07:28:00.024Z,101515.00
2023-09-24T07:30:27.849Z,101511.88
2023-09-24T07:32:55.901Z,101513.03
2023-09-24T07:35:25.434Z,101513.41
2023-09-24T07:37:53.287Z,101505.75
2023-09-24T07:40:21.922Z,101499.72
2023-09-24T07:42:49.717Z,101507.03
2023-09-24T07:45:19.858Z,101512.72
2023-09-24T07:47:47.956Z,101517.38
2023-09-24T07:50:15.789Z,101517.69
2023-09-24T07:52:44.962Z,101519.88
2023-09-24T07:55:12.848Z,101519.38
2023-09-24T07:57:40.647Z,101520.75
2023-09-24T08:00:11.058Z,101517.56
2023-09-24T08:02:39.116Z,101519.97
2023-09-24T08:05:07.862Z,101520.25
2023-09-24T08:07:37.390Z,101522.41
2023-09-24T08:10:06.902Z,101531.34
2023-09-24T08:12:35.768Z,101537.00
2023-09-24T08:15:05.944Z,101540.41
2023-09-24T08:17:34.220Z,101535.00
2023-09-24T08:20:02.057Z,101542.69
2023-09-24T08:22:29.918Z,101538.91
2023-09-24T08:24:57.947Z,101540.22
2023-09-24T08:27:27.212Z,101546.31
2023-09-24T08:29:55.634Z,101535.28
2023-09-24T08:32:25.214Z,101541.34
2023-09-24T08:34:52.915Z,101544.91
2023-09-24T08:37:20.742Z,101544.81
2023-09-24T08:39:48.825Z,101543.09
2023-09-24T08:42:21.084Z,101529.81
2023-09-24T08:44:59.238Z,101519.78
2023-09-24T08:47:28.927Z,101526.94
2023-09-24T08:49:59.294Z,101527.63
2023-09-24T08:52:27.294Z,101527.50
2023-09-24T08:54:56.245Z,101533.81
2023-09-24T08:57:24.337Z,101529.16
2023-09-24T08:59:53.965Z,101524.47
2023-09-24T09:02:21.853Z,101529.75
2023-09-24T09:04:50.983Z,101520.75
2023-09-24T09:07:18.986Z,101522.50
2023-09-24T09:09:55.762Z,101513.03
2023-09-24T09:12:25.287Z,101520.16
2023-09-24T09:14:54.366Z,101513.38
2023-09-24T09:17:22.631Z,101511.50
2023-09-24T09:19:53.835Z,101519.53
2023-09-24T09:22:23.578Z,101517.19
2023-09-24T09:24:51.771Z,101521.13
2023-09-24T09:27:19.592Z,101509.44
2023-09-24T09:29:47.829Z,101516.78
2023-09-24T09:32:17.073Z,101506.38
2023-09-24T09:34:54.727Z,101498.41
2023-09-24T09:37:22.865Z,101493.16
2023-09-24T09:39:50.726Z,101495.91
2023-09-24T09:42:23.145Z,101497.06
2023-09-24T09:44:53.304Z,101489.59
2023-09-24T09:47:29.455Z,101493.16
2023-09-24T09:50:00.768Z,101495.41
2023-09-24T09:52:34.150Z,101496.31
2023-09-24T09:55:05.691Z,101485.66
2023-09-24T09:57:34.519Z,101481.09
2023-09-24T10:00:06.823Z,101478.50
2023-09-24T10:02:38.141Z,101474.25
2023-09-24T10:05:09.162Z,101478.66
2023-09-24T10:07:38.697Z,101473.34
2023-09-24T10:10:41.511Z,101476.19
2023-09-24T10:13:48.638Z,101483.63
2023-09-24T10:16:38.302Z,101468.63
2023-09-24T10:19:10.053Z,101459.00
2023-09-24T10:21:39.457Z,101461.69
2023-09-24T10:24:39.643Z,101451.00
2023-09-24T10:27:10.355Z,101460.22
2023-09-24T10:30:05.812Z,101456.53
2023-09-24T10:32:51.183Z,101449.13
2023-09-24T10:35:21.454Z,101452.13
2023-09-24T10:38:03.309Z,101453.00
2023-09-24T10:40:35.509Z,101454.16
2023-09-24T10:43:20.246Z,101456.09
2023-09-24T10:45:50.118Z,101454.28
2023-09-24T10:48:21.861Z,101454.06
2023-09-24T10:50:56.444Z,101460.34
2023-09-24T10:53:24.080Z,101453.72
2023-09-24T10:56:05.479Z,101452.19
2023-09-24T10:58:37.718Z,101453.06
2023-09-24T11:01:05.572Z,101451.50
2023-09-24T11:03:37.164Z,101435.63
2023-09-24T11:06:09.205Z,101439.19
2023-09-24T11:08:37.176Z,101447.59
2023-09-24T11:11:05.041Z,101445.22
2023-09-24T11:13:33.426Z,101442.59
2023-09-24T11:16:02.205Z,101436.69
2023-09-24T11:18:30.448Z,101444.25
2023-09-24T11:20:58.917Z,101431.59
2023-09-24T11:23:28.245Z,101444.31
2023-09-24T11:25:56.513Z,101437.84
2023-09-24T11:28:32.778Z,101440.03
2023-09-24T11:31:00.784Z,101437.88
2023-09-24T11:33:28.894Z,101439.50
2023-09-24T11:35:57.466Z,101430.94
2023-09-24T11:38:30.851Z,101439.06
2023-09-24T11:41:08.692Z,101428.84
2023-09-24T11:43:38.002Z,101424.25
2023-09-24T11:46:18.315Z,101424.53
2023-09-24T11:48:47.238Z,101419.16
2023-09-24T11:51:16.234Z,101414.03
2023-09-24T11:53:46.299Z,101420.28
2023-09-24T11:56:14.240Z,101406.78
2023-09-24T11:58:42.267Z,101414.06
2023-09-24T12:01:11.184Z,101412.19
2023-09-24T12:03:39.998Z,101405.16
2023-09-24T12:06:08.468Z,101404.63
2023-09-24T12:08:37.317Z,101401.66
2023-09-24T12:11:06.939Z,101397.09
2023-09-24T12:13:34.959Z,101396.00
2023-09-24T12:16:03.006Z,101400.31
2023-09-24T12:18:30.958Z,101398.19
2023-09-24T12:20:59.416Z,101403.31
2023-09-24T12:23:28.112Z,101403.06
2023-09-24T12:25:55.998Z,101404.13
2023-09-24T12:28:25.197Z,101403.06
2023-09-24T12:30:53.210Z,101398.75
2023-09-24T12:33:21.543Z,101395.78
2023-09-24T12:35:50.705Z,101389.56
2023-09-24T12:38:19.131Z,101378.56
2023-09-24T12:40:47.578Z,101374.78
2023-09-24T12:43:15.470Z,101371.81
2023-09-24T12:45:46.024Z,101369.69
2023-09-24T12:48:14.043Z,101357.25
2023-09-24T12:50:42.575Z,101357.84
2023-09-24T12:53:10.756Z,101371.03
2023-09-24T12:55:38.693Z,101360.00
2023-09-24T12:58:06.686Z,101366.22
2023-09-24T13:00:34.828Z,101364.34
2023-09-24T13:03:04.400Z,101357.06
2023-09-24T13:05:33.499Z,101353.28
2023-09-24T13:08:01.720Z,101349.50
2023-09-24T13:10:30.300Z,101350.31
2023-09-24T13:13:00.124Z,101345.19
2023-09-24T13:15:28.181Z,101345.19
2023-09-24T13:17:56.237Z,101344.38
2023-09-24T13:20:25.648Z,101353.00
2023-09-24T13:22:53.624Z,101347.88
2023-09-24T13:25:21.471Z,101339.53
2023-09-24T13:27:49.313Z,101334.94
2023-09-24T13:30:17.555Z,101339.28
2023-09-24T13:32:45.489Z,101334.72
2023-09-24T13:35:13.499Z,101330.38
2023-09-24T13:37:51.292Z,101329.56
2023-09-24T13:40:35.075Z,101332.53
2023-09-24T13:43:05.614Z,101328.75
2023-09-24T13:45:33.661Z,101331.44
2023-09-24T13:48:01.638Z,101318.78
2023-09-24T13:50:29.654Z,101319.03
2023-09-24T13:52:59.013Z,101316.88
2023-09-24T13:55:26.875Z,101320.41
2023-09-24T13:57:55.011Z,101314.19
2023-09-24T14:00:23.118Z,101310.69
2023-09-24T14:02:51.146Z,101309.88
2023-09-24T14:05:19.439Z,101304.25
2023-09-24T14:07:47.328Z,101306.66
2023-09-24T14:10:42.799Z,101295.88
2023-09-24T14:13:10.669Z,101291.28
2023-09-24T14:15:39.430Z,101291.28
2023-09-24T14:18:13.829Z,101283.22
2023-09-24T14:20:42.184Z,101284.00
2023-09-24T14:23:10.362Z,101282.94
2023-09-24T14:25:41.593Z,101281.84
2023-09-24T14:28:09.600Z,101284.56
2023-09-24T14:30:38.944Z,101286.19
2023-09-24T14:33:07.324Z,101281.91
2023-09-24T14:35:35.316Z,101273.81
2023-09-24T14:38:03.621Z,101281.91
2023-09-24T14:40:34.326Z,101280.28
2023-09-24T14:43:03.866Z,101272.44
2023-09-24T14:45:31.556Z,101278.16
2023-09-24T14:48:01.269Z,101270.06
2023-09-24T14:50:29.427Z,101278.66
2023-09-24T14:52:57.259Z,101278.91
2023-09-24T14:55:25.618Z,101282.94
2023-09-24T14:57:55.723Z,101272.97
2023-09-24T15:00:28.498Z,101272.16
2023-09-24T15:02:57.528Z,101265.94
2023-09-24T15:05:25.641Z,101265.13
2023-09-24T15:07:53.864Z,101252.75
2023-09-24T15:10:22.057Z,101255.44
2023-09-24T15:12:50.059Z,101263.53
2023-09-24T15:15:18.514Z,101252.44
2023-09-24T15:17:48.414Z,101266.50
2023-09-24T15:20:16.418Z,101261.09
2023-09-24T15:22:44.244Z,101258.41
2023-09-24T15:25:12.362Z,101260.25
2023-09-24T15:27:40.278Z,101265.13
2023-09-24T15:30:09.247Z,101262.41
2023-09-24T15:32:37.475Z,101253.78
2023-09-24T15:35:07.707Z,101250.81
2023-09-24T15:37:35.541Z,101248.41
2023-09-24T15:40:03.882Z,101249.47
2023-09-24T15:42:31.757Z,101242.44
2023-09-24T15:44:59.650Z,101238.13
2023-09-24T15:47:27.882Z,101230.03
2023-09-24T15:49:58.278Z,101237.31
2023-09-24T15:52:27.627Z,101237.06
2023-09-24T15:54:55.484Z,101233.25
2023-09-24T15:57:24.235Z,101230.56
2023-09-24T15:59:52.445Z,101230.03
2023-09-24T16:02:20.334Z,101234.88
2023-09-24T16:04:48.868Z,101230.53
2023-09-24T16:07:17.012Z,101239.69
2023-09-24T16:09:46.210Z,101230.81
2023-09-24T16:12:14.126Z,101241.06
2023-09-24T16:14:42.009Z,101235.38
2023-09-24T16:17:09.867Z,101237.53
2023-09-24T16:19:37.743Z,101243.97
2023-09-24T16:22:05.869Z,101248.81
2023-09-24T16:24:33.968Z,101248.00
2023-09-24T16:27:03.534Z,101239.34
2023-09-24T16:29:31.431Z,101238.84
2023-09-24T16:31:59.503Z,101230.22
2023-09-24T16:34:29.397Z,101231.53
2023-09-24T16:36:57.509Z,101238.28
2023-09-24T16:39:25.344Z,101226.41
2023-09-24T16:41:53.202Z,101233.09
2023-09-24T16:44:22.785Z,101234.44
2023-09-24T16:46:50.780Z,101237.38
2023-09-24T16:49:18.647Z,101234.97
2023-09-24T16:51:48.685Z,101235.22
2023-09-24T16:54:18.471Z,101234.66
2023-09-24T16:56:46.414Z,101233.03
2023-09-24T16:59:14.288Z,101230.31
2023-09-24T17:01:44.794Z,101233.00
2023-09-24T17:04:12.734Z,101230.84
2023-09-24T17:06:40.789Z,101230.56
2023-09-24T17:09:10.523Z,101230.22
2023-09-24T17:11:38.634Z,101228.88
2023-09-24T17:14:07.397Z,101221.56
2023-09-24T17:16:35.529Z,101223.97
2023-09-24T17:19:04.822Z,101227.41
2023-09-24T17:21:33.158Z,101228.47
2023-09-24T17:24:01.172Z,101229.22
2023-09-24T17:26:29.135Z,101228.66
2023-09-24T17:28:57.363Z,101219.94
2023-09-24T17:31:27.935Z,101224.47
2023-09-24T17:33:58.305Z,101225.78
2023-09-24T17:36:27.609Z,101232.97
2023-09-24T17:38:55.572Z,101217.31
2023-09-24T17:41:24.673Z,101225.81
2023-09-24T17:43:52.510Z,101214.97
2023-09-24T17:46:25.190Z,101216.00
2023-09-24T17:48:53.141Z,101223.47
2023-09-24T17:51:21.203Z,101218.03
2023-09-24T17:53:50.703Z,101228.72
2023-09-24T17:56:19.167Z,101231.34
2023-09-24T17:58:47.066Z,101235.03
2023-09-24T18:01:16.761Z,101228.25
2023-09-24T18:03:46.312Z,101239.16
2023-09-24T18:06:16.643Z,101231.63
2023-09-24T18:08:44.986Z,101228.88
2023-09-24T18:11:14.450Z,101219.63
2023-09-24T18:13:42.435Z,101226.06
2023-09-24T18:16:10.546Z,101219.56
2023-09-24T18:18:40.133Z,101230.47
2023-09-24T18:21:08.519Z,101231.19
2023-09-24T18:23:36.860Z,101227.38
2023-09-24T18:26:04.990Z,101219.00
2023-09-24T18:28:34.480Z,101211.44
2023-09-24T18:31:02.347Z,101208.44
2023-09-24T18:33:30.537Z,101210.25
2023-09-24T18:35:59.798Z,101207.22
2023-09-24T18:38:28.976Z,101200.72
2023-09-24T18:40:57.248Z,101197.41
2023-09-24T18:43:25.690Z,101212.94
2023-09-24T18:46:01.658Z,101222.56
2023-09-24T18:48:30.608Z,101223.03
2023-09-24T18:51:00.869Z,101230.75
2023-09-24T18:53:31.153Z,101231.50
2023-09-24T18:56:02.845Z,101228.25
2023-09-24T18:58:30.913Z,101227.38
2023-09-24T19:01:01.098Z,101237.50
2023-09-24T19:03:29.079Z,101232.91
2023-09-24T19:05:58.605Z,101230.69
2023-09-24T19:08:27.258Z,101229.38
2023-09-24T19:10:55.419Z,101226.38
2023-09-24T19:13:30.329Z,101226.31
2023-09-24T19:16:07.700Z,101227.81
2023-09-24T19:18:36.203Z,101223.41
2023-09-24T19:21:04.653Z,101222.53
2023-09-24T19:23:33.652Z,101225.94
2023-09-24T19:26:12.539Z,101223.72
2023-09-24T19:28:40.528Z,101217.44
2023-09-24T19:31:10.797Z,101224.09
2023-09-24T19:33:40.151Z,101213.78
2023-09-24T19:36:08.492Z,101218.56
2023-09-24T19:38:36.477Z,101213.69
2023-09-24T19:41:06.689Z,101214.41
2023-09-24T19:43:34.553Z,101213.50
2023-09-24T19:46:02.586Z,101217.69
2023-09-24T19:48:32.624Z,101213.88
2023-09-24T19:51:00.910Z,101224.50
2023-09-24T19:53:28.799Z,101226.81
2023-09-24T19:55:56.944Z,101221.16
2023-09-24T19:58:26.484Z,101220.56
2023-09-24T20:00:55.413Z,101221.06
2023-09-24T20:03:24.014Z,101221.50
2023-09-24T20:05:53.919Z,101222.81
2023-09-24T20:08:23.547Z,101213.81
2023-09-24T20:10:51.403Z,101208.94
2023-09-24T20:13:19.292Z,101211.03
2023-09-24T20:15:47.277Z,101205.34
2023-09-24T20:18:15.425Z,101211.97
2023-09-24T20:20:43.394Z,101198.22
2023-09-24T20:23:12.961Z,101205.69
2023-09-24T20:25:43.452Z,101201.75
2023-09-24T20:28:11.835Z,101193.63
2023-09-24T20:30:39.919Z,101201.66
2023-09-24T20:33:21.141Z,101195.34
2023-09-24T20:35:56.662Z,101192.34
2023-09-24T20:38:25.996Z,101190.13
2023-09-24T20:41:03.559Z,101187.69
2023-09-24T20:43:31.511Z,101182.78
2023-09-24T20:46:00.105Z,101190.47
2023-09-24T20:48:28.808Z,101183.75
2023-09-24T20:50:57.248Z,101187.69
2023-09-24T20:53:26.865Z,101186.06
2023-09-24T20:55:55.679Z,101180.25
2023-09-24T20:58:23.725Z,101179.91
2023-09-24T21:00:53.344Z,101174.19
2023-09-24T21:03:21.353Z,101173.16
2023-09-24T21:05:49.381Z,101164.78
2023-09-24T21:08:17.818Z,101165.47
2023-09-24T21:10:47.496Z,101173.16
2023-09-24T21:13:15.105Z,101162.25
2023-09-24T21:15:43.072Z,101155.72
2023-09-24T21:18:11.427Z,101154.56
2023-09-24T21:20:39.551Z,101156.88
2023-09-24T21:23:08.146Z,101152.00
2023-09-24T21:25:36.252Z,101151.41
2023-09-24T21:28:06.235Z,101139.09
2023-09-24T21:30:34.118Z,101147.00
2023-09-24T21:33:02.569Z,101148.03
2023-09-24T21:35:30.988Z,101142.94
2023-09-24T21:37:58.801Z,101150.97
2023-09-24T21:40:26.829Z,101142.34
2023-09-24T21:42:54.676Z,101142.34
2023-09-24T21:45:23.935Z,101138.84
2023-09-24T21:47:52.193Z,101127.34
2023-09-24T21:50:20.069Z,101133.75
2023-09-24T21:52:48.050Z,101137.22
2023-09-24T21:55:16.485Z,101140.97
2023-09-24T21:57:44.284Z,101132.09
2023-09-24T22:00:20.521Z,101131.50
2023-09-24T22:02:50.214Z,101132.31
2023-09-24T22:05:19.014Z,101133.59
2023-09-24T22:07:49.892Z,101128.25
2023-09-24T22:10:19.044Z,101123.81
2023-09-24T22:12:46.936Z,101135.09
2023-09-24T22:15:15.320Z,101131.63
2023-09-24T22:17:43.424Z,101128.34
2023-09-24T22:20:14.096Z,101128.34
2023-09-24T22:22:42.260Z,101134.19
2023-09-24T22:25:13.353Z,101123.34
2023-09-24T22:27:42.992Z,101127.41
2023-09-24T22:30:12.491Z,101127.66
2023-09-24T22:32:41.214Z,101112.66
2023-09-24T22:35:13.341Z,101105.91
2023-09-24T22:37:43.119Z,101105.91
2023-09-24T22:40:11.543Z,101095.69
2023-09-24T22:42:41.034Z,101098.25
2023-09-24T22:45:12.023Z,101101.38
2023-09-24T22:47:39.993Z,101097.31
2023-09-24T22:50:09.284Z,101095.91
2023-09-24T22:52:37.552Z,101089.75
2023-09-24T22:55:07.909Z,101096.13
2023-09-24T22:57:36.774Z,101094.75
2023-09-24T23:00:10.161Z,101097.63
2023-09-24T23:02:38.621Z,101095.22
2023-09-24T23:05:07.642Z,101093.78
2023-09-24T23:07:35.582Z,101097.31
2023-09-24T23:10:04.433Z,101097.53
2023-09-24T23:12:33.722Z,101091.13
2023-09-24T23:15:01.680Z,101087.88
2023-09-24T23:17:32.890Z,101090.78
2023-09-24T23:20:00.759Z,101084.28
2023-09-24T23:22:30.093Z,101091.84
2023-09-24T23:24:58.464Z,101083.22
2023-09-24T23:27:26.380Z,101089.38
2023-09-24T23:29:55.677Z,101080.56
2023-09-24T23:32:23.968Z,101081.59
2023-09-24T23:34:51.916Z,101072.53
2023-09-24T23:37:19.765Z,101072.53
2023-09-24T23:39:48.335Z,101075.44
2023-09-24T23:42:16.193Z,101070.91
2023-09-24T23:44:44.027Z,101068.22
2023-09-24T23:47:13.987Z,101078.94
2023-09-24T23:49:41.814Z,101069.28
2023-09-24T23:52:09.937Z,101081.59
2023-09-24T23:54:38.786Z,101074.84
2023-09-24T23:57:06.665Z,101079.16
2023-09-24T23:59:34.524Z,101090.69
